Time;durP1;ratioP1;P1;durP2;ratioP2;P2;SDS_P1;SDS_P2;PMS_P1;PMS_P2;Temp;Humidity;BMP_temperature;BMP_pressure;BME280_temperature;BME280_humidity;BME280_pressure;Samples;Min_cycle;Max_cycle;Signal;HPM_P1;HPM_P2
2024/03/19 00:00:42;;;;;;;6.45;5.28;;;1.00;1.00;;;;;;5108342;27;20239;-70
2024/03/19 00:03:09;;;;;;;5.55;4.82;;;0.90;1.00;;;;;;5106189;27;20734;-72
2024/03/19 00:05:36;;;;;;;5.60;5.10;;;1.00;1.00;;;;;;5104780;27;20808;-70
2024/03/19 00:08:03;;;;;;;5.03;4.50;;;1.00;1.00;;;;;;5099105;27;20228;-72
2024/03/19 00:10:30;;;;;;;6.40;5.35;;;0.90;1.00;;;;;;5089270;28;20235;-72
2024/03/19 00:12:57;;;;;;;7.60;5.25;;;0.90;1.00;;;;;;5077415;28;20240;-74
2024/03/19 00:15:25;;;;;;;5.78;5.22;;;1.00;1.00;;;;;;5086444;28;20405;-71
2024/03/19 00:17:53;;;;;;;6.05;5.53;;;0.90;1.00;;;;;;5085063;28;20289;-70
2024/03/19 00:20:21;;;;;;;6.53;5.93;;;0.90;1.00;;;;;;5090647;28;20327;-70
2024/03/19 00:22:48;;;;;;;5.70;5.00;;;0.90;1.00;;;;;;5085710;28;21103;-71
2024/03/19 00:25:15;;;;;;;5.55;5.05;;;0.80;1.00;;;;;;5085601;28;20327;-71
2024/03/19 00:27:42;;;;;;;6.25;5.75;;;0.90;1.00;;;;;;5085757;28;21045;-72
2024/03/19 00:30:10;;;;;;;5.32;4.93;;;0.80;1.00;;;;;;5081039;27;20302;-73
2024/03/19 00:32:39;;;;;;;5.00;4.50;;;0.80;1.00;;;;;;5097274;27;20243;-73
2024/03/19 00:35:09;;;;;;;6.43;5.00;;;0.80;1.00;;;;;;5105619;27;20290;-72
2024/03/19 00:37:36;;;;;;;10.95;5.32;;;0.70;1.00;;;;;;5086388;28;20331;-71
2024/03/19 00:40:04;;;;;;;5.72;5.18;;;0.70;1.00;;;;;;5087173;28;20235;-71
2024/03/19 00:42:31;;;;;;;5.75;5.25;;;0.80;1.00;;;;;;5094899;28;20327;-72
2024/03/19 00:44:59;;;;;;;5.43;4.93;;;0.70;1.00;;;;;;5088349;27;20255;-70
2024/03/19 00:47:26;;;;;;;5.50;4.90;;;0.70;1.00;;;;;;5080205;28;20291;-78
2024/03/19 00:49:55;;;;;;;6.63;4.88;;;0.70;1.00;;;;;;5086353;27;20239;-75
2024/03/19 00:52:22;;;;;;;6.18;5.25;;;0.70;1.00;;;;;;5095249;27;20243;-70
2024/03/19 00:54:49;;;;;;;5.75;5.25;;;0.70;1.00;;;;;;5089411;27;20289;-70
2024/03/19 00:57:16;;;;;;;5.93;5.25;;;0.70;1.00;;;;;;5095820;27;20239;-71
2024/03/19 00:59:45;;;;;;;5.47;4.22;;;0.70;1.00;;;;;;5100694;27;21456;-72
2024/03/19 01:02:12;;;;;;;6.53;5.18;;;0.70;1.00;;;;;;5113179;27;20239;-72
2024/03/19 01:04:40;;;;;;;6.18;5.60;;;0.70;1.00;;;;;;5090940;28;20327;-70
2024/03/19 01:07:09;;;;;;;5.85;4.65;;;0.70;1.00;;;;;;5087270;28;20260;-70
2024/03/19 01:09:39;;;;;;;5.97;5.40;;;0.70;1.00;;;;;;5085261;28;20232;-71
2024/03/19 01:12:06;;;;;;;4.93;4.30;;;0.70;1.00;;;;;;5084729;28;20628;-71
2024/03/19 01:14:34;;;;;;;5.93;5.35;;;0.70;1.00;;;;;;5090123;28;20270;-71
2024/03/19 01:17:01;;;;;;;5.70;5.20;;;0.60;1.00;;;;;;5109027;27;20334;-72
2024/03/19 01:19:28;;;;;;;5.95;4.88;;;0.70;1.00;;;;;;5094433;27;20309;-72
2024/03/19 01:21:55;;;;;;;6.00;5.45;;;0.60;1.00;;;;;;5086991;28;20331;-69
2024/03/19 01:24:23;;;;;;;4.95;4.55;;;0.60;1.00;;;;;;5088400;28;20242;-73
2024/03/19 01:26:51;;;;;;;5.43;4.93;;;0.60;1.00;;;;;;5070227;28;20298;-72
2024/03/19 01:29:17;;;;;;;5.93;4.72;;;0.60;1.00;;;;;;5107344;27;20234;-73
2024/03/19 01:31:44;;;;;;;5.50;5.00;;;0.50;1.00;;;;;;5097081;27;20270;-73
2024/03/19 01:34:13;;;;;;;7.72;4.95;;;0.50;1.00;;;;;;5086739;28;20236;-71
2024/03/19 01:36:40;;;;;;;6.18;4.50;;;0.50;1.00;;;;;;5084463;28;20263;-71
2024/03/19 01:39:09;;;;;;;5.57;4.60;;;0.50;1.00;;;;;;5092138;27;20259;-71
2024/03/19 01:41:37;;;;;;;5.30;4.80;;;0.50;1.00;;;;;;5089523;28;20727;-71
2024/03/19 01:44:07;;;;;;;6.25;5.65;;;0.50;1.00;;;;;;5087459;28;20240;-70
2024/03/19 01:46:34;;;;;;;5.93;5.20;;;0.50;1.00;;;;;;5086463;27;20323;-76
2024/03/19 01:49:02;;;;;;;11.80;5.53;;;0.50;1.00;;;;;;5089901;28;20319;-74
2024/03/19 01:51:29;;;;;;;5.45;4.60;;;0.50;1.00;;;;;;5089900;28;21000;-74
2024/03/19 01:53:57;;;;;;;5.25;4.85;;;0.50;1.00;;;;;;5091320;28;21064;-72
2024/03/19 01:56:24;;;;;;;5.45;4.90;;;0.40;1.00;;;;;;5087082;28;20313;-74
2024/03/19 01:58:53;;;;;;;5.22;4.72;;;0.40;1.00;;;;;;5092672;27;20239;-74
2024/03/19 02:01:21;;;;;;;7.43;5.82;;;0.40;1.00;;;;;;5090792;28;20285;-72
2024/03/19 02:03:49;;;;;;;5.30;4.90;;;0.40;1.00;;;;;;5090404;28;20251;-73
2024/03/19 02:06:17;;;;;;;5.60;4.97;;;0.40;1.00;;;;;;5100174;27;20239;-72
2024/03/19 02:08:58;;;;;;;5.65;5.15;;;0.40;1.00;;;;;;5095964;27;20239;-74
2024/03/19 02:11:25;;;;;;;5.30;4.88;;;0.40;1.00;;;;;;5092521;27;20312;-73
2024/03/19 02:13:54;;;;;;;4.88;4.30;;;0.40;1.00;;;;;;5104527;27;20238;-73
2024/03/19 02:16:21;;;;;;;6.15;5.20;;;0.40;1.00;;;;;;5086352;28;20722;-74
2024/03/19 02:18:55;;;;;;;5.63;5.22;;;0.50;1.00;;;;;;5089412;28;20244;-73
2024/03/19 02:21:22;;;;;;;5.22;4.72;;;0.50;1.00;;;;;;5084854;27;20235;-73
2024/03/19 02:23:51;;;;;;;5.75;5.22;;;0.40;1.00;;;;;;5085575;28;20232;-74
2024/03/19 02:26:18;;;;;;;5.60;5.03;;;0.40;1.00;;;;;;5095156;27;20231;-73
2024/03/19 02:28:44;;;;;;;5.95;5.32;;;0.40;1.00;;;;;;5099379;27;21463;-75
2024/03/19 02:31:12;;;;;;;6.03;4.95;;;0.40;1.00;;;;;;5087362;28;20242;-73
2024/03/19 02:33:39;;;;;;;6.63;4.55;;;0.40;1.00;;;;;;5105629;27;20346;-72
2024/03/19 02:36:08;;;;;;;5.10;4.70;;;0.30;1.00;;;;;;5108382;27;20235;-73
2024/03/19 02:38:35;;;;;;;4.90;4.50;;;0.30;1.00;;;;;;5090110;27;21444;-75
2024/03/19 02:41:03;;;;;;;5.65;5.15;;;0.30;1.00;;;;;;5099983;27;20716;-74
2024/03/19 02:43:30;;;;;;;5.30;4.80;;;0.30;1.00;;;;;;5085256;28;20239;-74
2024/03/19 02:45:57;;;;;;;5.93;5.43;;;0.20;1.00;;;;;;5086245;28;20355;-75
2024/03/19 02:48:24;;;;;;;5.70;5.15;;;0.20;1.00;;;;;;5088947;28;20236;-74
2024/03/19 02:50:51;;;;;;;5.45;4.30;;;0.20;1.00;;;;;;5089603;28;20294;-73
2024/03/19 02:53:21;;;;;;;7.35;4.93;;;0.20;1.00;;;;;;5085415;28;20297;-74
2024/03/19 02:55:49;;;;;;;5.88;4.50;;;0.20;1.00;;;;;;5098049;27;20605;-70
2024/03/19 02:58:17;;;;;;;6.05;5.45;;;0.10;1.00;;;;;;5085272;28;20232;-71
2024/03/19 03:00:44;;;;;;;5.38;4.95;;;0.00;1.00;;;;;;5096112;27;21075;-71
2024/03/19 03:03:11;;;;;;;6.18;5.57;;;0.10;1.00;;;;;;5089196;28;20291;-71
2024/03/19 03:05:39;;;;;;;6.15;5.60;;;0.10;1.00;;;;;;5089055;28;20236;-71
2024/03/19 03:08:07;;;;;;;5.82;5.25;;;0.10;1.00;;;;;;5096552;27;20238;-71
2024/03/19 03:10:34;;;;;;;5.97;5.40;;;0.00;1.00;;;;;;5103183;27;20288;-71
2024/03/19 03:13:01;;;;;;;5.20;4.75;;;0.00;1.00;;;;;;5105850;27;22501;-71
2024/03/19 03:15:30;;;;;;;6.78;6.18;;;0.10;1.00;;;;;;5110627;27;20267;-72
2024/03/19 03:17:57;;;;;;;6.53;5.65;;;0.10;1.00;;;;;;5108364;27;20313;-79
2024/03/19 03:20:24;;;;;;;6.15;5.53;;;0.10;1.00;;;;;;5110403;27;20235;-71
2024/03/19 03:22:51;;;;;;;6.88;5.80;;;0.10;1.00;;;;;;5110336;27;20288;-73
2024/03/19 03:25:18;;;;;;;10.50;6.07;;;0.10;1.00;;;;;;5112158;27;20296;-70
2024/03/19 03:27:46;;;;;;;7.97;6.68;;;0.10;1.00;;;;;;5110305;27;20293;-70
2024/03/19 03:30:14;;;;;;;6.85;5.95;;;0.10;1.00;;;;;;5112560;27;20945;-73
2024/03/19 03:32:45;;;;;;;8.20;5.53;;;0.10;1.00;;;;;;5110561;27;20907;-71
2024/03/19 03:35:13;;;;;;;5.97;5.38;;;0.00;1.00;;;;;;5109891;27;20242;-71
2024/03/19 03:37:40;;;;;;;6.13;5.53;;;0.00;1.00;;;;;;5111555;27;20320;-74
2024/03/19 03:40:13;;;;;;;7.68;6.80;;;0.10;1.00;;;;;;5108797;27;20235;-71
2024/03/19 03:42:41;;;;;;;9.68;6.95;;;0.00;1.00;;;;;;5088840;28;20235;-71
2024/03/19 03:45:10;;;;;;;6.65;6.15;;;0.00;1.00;;;;;;5087359;28;20232;-70
2024/03/19 03:47:37;;;;;;;9.75;6.55;;;0.00;1.00;;;;;;5090328;28;20259;-69
2024/03/19 03:50:07;;;;;;;8.75;6.13;;;0.00;1.00;;;;;;5090547;27;20284;-71
2024/03/19 03:52:34;;;;;;;7.32;5.75;;;-0.10;1.00;;;;;;5089777;28;20247;-76
2024/03/19 03:55:02;;;;;;;8.25;5.97;;;-0.10;1.00;;;;;;5107526;27;20737;-70
2024/03/19 03:57:29;;;;;;;7.35;6.25;;;-0.10;1.00;;;;;;5101485;27;20658;-71
2024/03/19 03:59:56;;;;;;;7.47;5.93;;;-0.10;1.00;;;;;;5098085;27;20317;-72
2024/03/19 04:02:23;;;;;;;11.73;6.65;;;-0.10;1.00;;;;;;5085028;28;20263;-75
2024/03/19 04:04:52;;;;;;;8.18;6.10;;;-0.10;1.00;;;;;;5086160;28;20363;-74
2024/03/19 04:07:20;;;;;;;7.53;5.70;;;-0.20;1.00;;;;;;5096855;27;20236;-73
2024/03/19 04:09:48;;;;;;;9.27;7.65;;;-0.20;1.00;;;;;;5099498;27;20235;-74
2024/03/19 04:12:15;;;;;;;8.02;7.22;;;-0.20;1.00;;;;;;5104744;27;20240;-74
2024/03/19 04:14:42;;;;;;;10.40;7.00;;;-0.20;1.00;;;;;;5086876;28;20236;-73
2024/03/19 04:17:12;;;;;;;11.73;7.78;;;-0.20;1.00;;;;;;5094854;27;20244;-73
2024/03/19 04:19:39;;;;;;;7.18;6.43;;;-0.20;1.00;;;;;;5095991;27;20342;-74
2024/03/19 04:22:06;;;;;;;10.80;8.10;;;-0.20;1.00;;;;;;5093083;27;20266;-73
2024/03/19 04:24:34;;;;;;;7.95;7.20;;;-0.20;1.00;;;;;;5088978;28;20236;-72
2024/03/19 04:27:01;;;;;;;8.82;8.02;;;-0.30;1.00;;;;;;5086397;27;20256;-74
2024/03/19 04:29:29;;;;;;;9.10;7.63;;;-0.30;1.00;;;;;;5088782;27;20322;-74
2024/03/19 04:31:59;;;;;;;8.90;7.15;;;-0.30;1.00;;;;;;5081374;28;20231;-74
2024/03/19 04:34:26;;;;;;;9.82;7.93;;;-0.30;1.00;;;;;;5089696;27;20373;-75
2024/03/19 04:36:53;;;;;;;8.20;7.40;;;-0.30;1.00;;;;;;5098867;27;20261;-73
2024/03/19 04:39:21;;;;;;;11.73;10.63;;;-0.40;1.00;;;;;;5103701;27;20347;-75
2024/03/19 04:41:50;;;;;;;10.60;8.07;;;-0.40;1.00;;;;;;5066558;28;21611;-74
2024/03/19 04:44:16;;;;;;;7.28;6.47;;;-0.40;1.00;;;;;;5086660;28;20704;-74
2024/03/19 04:46:43;;;;;;;9.57;8.57;;;-0.40;1.00;;;;;;5089152;28;20323;-74
2024/03/19 04:49:10;;;;;;;10.13;8.23;;;-0.40;1.00;;;;;;5096697;27;21854;-72
2024/03/19 04:51:37;;;;;;;8.85;7.68;;;-0.40;1.00;;;;;;5089091;28;20330;-72
2024/03/19 04:54:04;;;;;;;8.00;6.70;;;-0.50;1.00;;;;;;5088043;28;21136;-73
2024/03/19 04:56:33;;;;;;;13.32;9.77;;;-0.50;1.00;;;;;;5089315;28;20828;-73
2024/03/19 04:59:03;;;;;;;12.13;8.18;;;-0.50;1.00;;;;;;5089010;28;20243;-73
2024/03/19 05:01:31;;;;;;;13.80;9.25;;;-0.50;1.00;;;;;;5087695;27;20267;-73
2024/03/19 05:03:58;;;;;;;13.10;8.85;;;-0.50;1.00;;;;;;5093220;27;20239;-73
2024/03/19 05:06:25;;;;;;;11.02;7.65;;;-0.50;1.00;;;;;;5104375;27;20266;-75
2024/03/19 05:08:53;;;;;;;12.88;8.48;;;-0.40;1.00;;;;;;5107057;27;20374;-74
2024/03/19 05:11:20;;;;;;;9.18;7.10;;;-0.40;1.00;;;;;;5096402;27;20244;-76
2024/03/19 05:13:47;;;;;;;10.43;7.25;;;-0.30;1.00;;;;;;5088663;27;20246;-74
2024/03/19 05:16:16;;;;;;;12.20;11.00;;;-0.20;1.00;;;;;;5093421;27;20216;-70
2024/03/19 05:18:43;;;;;;;12.07;10.13;;;-0.10;1.00;;;;;;5095040;27;20312;-71
2024/03/19 05:21:10;;;;;;;10.40;8.15;;;-0.20;1.00;;;;;;5099177;27;20247;-74
2024/03/19 05:23:38;;;;;;;10.02;8.88;;;-0.20;1.00;;;;;;5113694;27;20321;-71
2024/03/19 05:26:07;;;;;;;10.93;7.60;;;0.00;1.00;;;;;;5109148;27;21072;-71
2024/03/19 05:28:34;;;;;;;13.05;8.13;;;0.00;1.00;;;;;;5093225;27;21056;-70
2024/03/19 05:31:01;;;;;;;8.60;7.75;;;0.00;1.00;;;;;;5107545;27;20239;-72
2024/03/19 05:33:30;;;;;;;10.57;8.45;;;0.00;1.00;;;;;;5111492;27;20708;-71
2024/03/19 05:35:57;;;;;;;8.30;6.93;;;0.00;1.00;;;;;;5100558;27;20228;-72
2024/03/19 05:38:24;;;;;;;11.73;10.60;;;0.00;1.00;;;;;;5085988;27;20246;-70
2024/03/19 05:40:51;;;;;;;8.25;7.45;;;0.10;1.00;;;;;;5102063;27;20242;-71
2024/03/19 05:43:18;;;;;;;8.77;7.80;;;0.20;1.00;;;;;;5086848;28;20289;-71
2024/03/19 05:45:45;;;;;;;8.75;7.43;;;0.10;1.00;;;;;;5086346;28;20741;-72
2024/03/19 05:48:12;;;;;;;9.80;7.38;;;0.20;1.00;;;;;;5084090;28;20884;-72
2024/03/19 05:50:41;;;;;;;10.50;7.65;;;0.40;1.00;;;;;;5088615;28;20244;-73
2024/03/19 05:53:08;;;;;;;14.43;9.60;;;0.40;1.00;;;;;;5102149;27;20306;-71
2024/03/19 05:55:35;;;;;;;9.13;7.50;;;0.40;1.00;;;;;;5107479;27;20228;-75
2024/03/19 05:58:03;;;;;;;7.63;6.75;;;0.40;1.00;;;;;;5090215;28;20543;-76
2024/03/19 06:00:30;;;;;;;8.02;6.72;;;0.30;1.00;;;;;;5104745;27;20242;-73
2024/03/19 06:02:57;;;;;;;9.57;8.05;;;0.30;1.00;;;;;;5100287;27;20960;-70
2024/03/19 06:05:24;;;;;;;11.13;8.63;;;0.30;1.00;;;;;;5095363;28;20232;-72
2024/03/19 06:07:53;;;;;;;12.30;9.02;;;0.30;1.00;;;;;;5085764;28;21075;-70
2024/03/19 06:10:20;;;;;;;9.00;8.00;;;0.30;1.00;;;;;;5089531;28;20313;-72
2024/03/19 06:12:47;;;;;;;10.18;7.80;;;0.30;1.00;;;;;;5090560;28;20313;-74
2024/03/19 06:15:14;;;;;;;9.82;7.30;;;0.40;1.00;;;;;;5074305;28;20309;-72
2024/03/19 06:17:41;;;;;;;9.50;7.60;;;0.50;1.00;;;;;;5096020;27;20231;-74
2024/03/19 06:20:14;;;;;;;9.98;8.00;;;0.50;1.00;;;;;;5084679;28;20310;-72
2024/03/19 06:22:42;;;;;;;9.90;8.15;;;0.50;1.00;;;;;;5091265;27;20309;-72
2024/03/19 06:25:11;;;;;;;12.15;9.52;;;0.60;1.00;;;;;;5090278;27;20235;-69
2024/03/19 06:27:39;;;;;;;9.88;8.32;;;0.60;1.00;;;;;;5095793;27;20753;-72
2024/03/19 06:30:08;;;;;;;12.32;8.23;;;0.60;1.00;;;;;;5093214;27;20249;-72
2024/03/19 06:32:36;;;;;;;11.30;8.85;;;0.70;1.00;;;;;;5095137;27;20232;-73
2024/03/19 06:35:04;;;;;;;11.45;8.32;;;0.80;1.00;;;;;;5088666;28;21055;-71
2024/03/19 06:37:31;;;;;;;12.10;9.27;;;0.90;1.00;;;;;;5101498;27;20235;-74
2024/03/19 06:39:58;;;;;;;12.77;8.40;;;1.00;1.00;;;;;;5086690;28;20236;-71
2024/03/19 06:42:26;;;;;;;10.13;7.82;;;1.10;1.00;;;;;;5090624;28;20243;-71
2024/03/19 06:44:53;;;;;;;10.25;9.13;;;1.20;1.00;;;;;;5092406;28;20274;-70
2024/03/19 06:47:20;;;;;;;12.50;8.60;;;1.30;1.00;;;;;;5089992;28;20228;-71
2024/03/19 06:49:48;;;;;;;12.55;9.32;;;1.40;1.00;;;;;;5092286;28;20238;-73
2024/03/19 06:52:16;;;;;;;10.85;8.55;;;1.50;1.00;;;;;;5091018;27;20232;-74
2024/03/19 06:54:43;;;;;;;16.70;9.85;;;1.50;1.00;;;;;;5090589;28;20240;-72
2024/03/19 06:57:11;;;;;;;14.23;9.55;;;1.60;1.00;;;;;;5085382;28;20798;-72
2024/03/19 06:59:41;;;;;;;14.80;9.30;;;1.70;1.00;;;;;;5092106;27;20293;-69
2024/03/19 07:02:11;;;;;;;10.50;9.40;;;1.70;1.00;;;;;;5074422;28;20323;-74
2024/03/19 07:04:38;;;;;;;11.38;10.07;;;1.90;1.00;;;;;;5088696;28;20322;-71
2024/03/19 07:07:05;;;;;;;13.55;10.73;;;2.00;1.00;;;;;;5086743;27;20327;-70
2024/03/19 07:09:32;;;;;;;14.25;9.80;;;2.10;1.00;;;;;;5088677;28;20236;-72
2024/03/19 07:11:59;;;;;;;11.35;9.40;;;2.20;1.00;;;;;;5087580;28;20233;-70
2024/03/19 07:14:26;;;;;;;13.05;10.20;;;2.30;1.00;;;;;;5089525;28;21023;-70
2024/03/19 07:16:55;;;;;;;17.67;11.10;;;2.50;1.00;;;;;;5084062;28;20251;-70
2024/03/19 07:19:22;;;;;;;12.40;9.13;;;2.60;1.00;;;;;;5088942;28;20719;-72
2024/03/19 07:21:49;;;;;;;17.63;12.48;;;2.70;1.00;;;;;;5085280;28;20243;-73
2024/03/19 07:24:17;;;;;;;13.15;9.93;;;2.80;1.00;;;;;;5085361;27;20251;-70
2024/03/19 07:26:44;;;;;;;12.55;10.18;;;3.00;1.00;;;;;;5094770;27;20239;-73
2024/03/19 07:29:12;;;;;;;16.75;15.05;;;3.10;1.00;;;;;;5061077;28;20385;-70
2024/03/19 07:31:42;;;;;;;13.55;10.40;;;3.20;1.00;;;;;;5087548;28;20313;-70
2024/03/19 07:34:12;;;;;;;11.13;10.00;;;3.30;1.00;;;;;;5091436;27;20334;-75
2024/03/19 07:36:39;;;;;;;12.88;9.90;;;3.40;1.00;;;;;;5088642;28;20321;-75
2024/03/19 07:39:11;;;;;;;11.32;10.13;;;3.40;1.00;;;;;;5100498;27;20617;-74
2024/03/19 07:41:39;;;;;;;12.35;9.88;;;3.50;1.00;;;;;;5087495;28;21496;-73
2024/03/19 07:44:06;;;;;;;18.50;11.52;;;3.60;1.00;;;;;;5092837;27;20289;-75
2024/03/19 07:46:33;;;;;;;14.82;11.20;;;3.70;1.00;;;;;;5088512;28;21031;-73
2024/03/19 07:49:01;;;;;;;14.93;10.13;;;3.80;1.00;;;;;;5080874;27;20233;-72
2024/03/19 07:51:29;;;;;;;13.18;11.30;;;4.00;1.00;;;;;;5099382;27;20228;-73
2024/03/19 07:53:56;;;;;;;15.38;10.55;;;4.10;1.00;;;;;;5087310;28;20224;-75
2024/03/19 07:56:24;;;;;;;17.48;11.82;;;4.30;1.00;;;;;;5099479;27;20312;-74
2024/03/19 07:58:51;;;;;;;11.90;10.70;;;4.30;1.00;;;;;;5092458;27;20235;-75
2024/03/19 08:01:18;;;;;;;15.90;12.90;;;4.50;1.00;;;;;;5089161;28;20263;-73
2024/03/19 08:03:46;;;;;;;13.82;11.07;;;4.60;1.00;;;;;;5096275;27;21061;-76
2024/03/19 08:06:22;;;;;;;16.35;12.20;;;4.70;1.00;;;;;;5151618;27;20575;-72
2024/03/19 08:08:49;;;;;;;13.35;11.40;;;4.60;1.00;;;;;;5144363;27;20244;-74
2024/03/19 08:11:17;;;;;;;13.45;11.50;;;4.70;1.00;;;;;;5145282;27;20234;-74
2024/03/19 08:13:44;;;;;;;16.35;10.68;;;4.80;1.00;;;;;;5145181;27;20777;-74
2024/03/19 08:16:11;;;;;;;14.60;12.02;;;5.00;1.00;;;;;;5145027;27;20233;-74
2024/03/19 08:18:39;;;;;;;17.10;12.30;;;5.10;1.00;;;;;;5139047;27;20243;-75
2024/03/19 08:21:06;;;;;;;12.88;11.57;;;5.10;1.00;;;;;;5121216;27;20719;-75
2024/03/19 08:23:38;;;;;;;12.10;10.80;;;5.10;1.00;;;;;;5136219;27;21197;-74
2024/03/19 08:26:05;;;;;;;13.50;11.80;;;5.20;1.00;;;;;;5145322;27;20227;-74
2024/03/19 08:28:32;;;;;;;12.45;11.15;;;5.30;1.00;;;;;;5148136;27;20257;-76
2024/03/19 08:30:59;;;;;;;13.27;11.77;;;5.30;1.00;;;;;;5148243;27;20238;-76
2024/03/19 08:33:26;;;;;;;12.48;11.15;;;5.40;1.00;;;;;;5143607;27;20844;-76
2024/03/19 08:35:54;;;;;;;18.17;11.90;;;5.60;1.00;;;;;;5131332;27;20333;-76
2024/03/19 08:38:24;;;;;;;12.43;11.10;;;5.80;1.00;;;;;;5146378;27;20234;-76
2024/03/19 08:40:53;;;;;;;14.18;12.10;;;6.00;1.00;;;;;;5144852;27;20279;-77
2024/03/19 08:43:20;;;;;;;12.63;11.27;;;6.10;1.00;;;;;;5134571;27;20272;-74
2024/03/19 08:45:48;;;;;;;14.73;12.05;;;6.10;1.00;;;;;;5134553;27;20294;-76
2024/03/19 08:48:15;;;;;;;11.63;10.40;;;6.10;1.00;;;;;;5146812;27;20238;-76
2024/03/19 08:50:42;;;;;;;13.55;10.82;;;6.20;1.00;;;;;;5141559;27;20235;-74
2024/03/19 08:53:09;;;;;;;11.70;10.50;;;6.20;1.00;;;;;;5124798;27;20228;-74
2024/03/19 08:55:37;;;;;;;11.82;10.63;;;6.30;1.00;;;;;;5142332;27;20747;-76
2024/03/19 08:58:06;;;;;;;10.27;8.60;;;6.40;1.00;;;;;;5139160;27;20293;-76
2024/03/19 09:00:33;;;;;;;10.88;8.95;;;6.60;1.00;;;;;;5142538;27;20262;-74
2024/03/19 09:03:00;;;;;;;8.93;8.05;;;6.70;1.00;;;;;;5145130;27;20322;-73
2024/03/19 09:05:28;;;;;;;10.77;8.25;;;6.70;1.00;;;;;;5140724;27;20247;-72
2024/03/19 09:07:56;;;;;;;9.15;8.18;;;6.90;1.00;;;;;;5144429;27;20237;-75
2024/03/19 09:10:23;;;;;;;9.15;8.25;;;7.10;1.00;;;;;;5145711;27;20321;-75
2024/03/19 09:12:50;;;;;;;9.35;8.43;;;7.10;1.00;;;;;;5143685;27;20809;-73
2024/03/19 09:15:18;;;;;;;10.32;9.20;;;7.10;1.00;;;;;;5140200;27;20242;-75
2024/03/19 09:17:45;;;;;;;8.77;7.97;;;7.20;1.00;;;;;;5128614;27;20331;-75
2024/03/19 09:20:14;;;;;;;7.93;6.97;;;7.50;1.00;;;;;;5126304;27;20249;-74
2024/03/19 09:22:41;;;;;;;10.10;9.10;;;8.20;1.00;;;;;;5122206;27;20479;-73
2024/03/19 09:25:09;;;;;;;8.53;7.63;;;9.40;1.00;;;;;;5126967;27;20467;-74
2024/03/19 09:27:39;;;;;;;8.20;7.40;;;10.70;1.00;;;;;;5126458;27;20481;-75
2024/03/19 09:30:10;;;;;;;8.63;7.67;;;12.00;1.00;;;;;;5109602;27;20604;-76
2024/03/19 09:32:39;;;;;;;8.27;7.53;;;12.90;1.00;;;;;;5114576;27;20455;-76
2024/03/19 09:35:07;;;;;;;9.10;7.57;;;14.00;1.00;;;;;;5123455;27;20460;-74
2024/03/19 09:37:34;;;;;;;8.97;8.07;;;13.60;1.00;;;;;;5126170;27;20456;-76
2024/03/19 09:40:01;;;;;;;9.10;7.70;;;14.20;1.00;;;;;;5126359;27;20518;-74
2024/03/19 09:42:28;;;;;;;8.90;8.20;;;15.00;1.00;;;;;;5122584;27;20476;-75
2024/03/19 09:44:55;;;;;;;9.33;8.43;;;15.70;1.00;;;;;;5116659;27;20470;-74
2024/03/19 09:47:22;;;;;;;8.60;7.90;;;15.80;1.00;;;;;;5125277;27;21006;-74
2024/03/19 09:49:50;;;;;;;9.40;8.50;;;15.90;1.00;;;;;;5129157;27;20468;-74
2024/03/19 09:52:22;;;;;;;9.17;8.47;;;15.90;1.00;;;;;;5127452;27;20521;-74
2024/03/19 09:54:49;;;;;;;8.67;7.87;;;16.00;1.00;;;;;;5119679;27;21002;-72
2024/03/19 09:57:18;;;;;;;9.20;8.40;;;16.40;1.00;;;;;;5125696;27;20500;-70
2024/03/19 09:59:46;;;;;;;9.27;8.00;;;16.90;1.00;;;;;;5125824;27;20649;-71
2024/03/19 10:02:17;;;;;;;8.80;7.90;;;17.50;1.00;;;;;;5103211;27;20884;-71
2024/03/19 10:04:46;;;;;;;7.80;7.10;;;17.30;1.00;;;;;;5104758;27;20971;-70
2024/03/19 10:07:15;;;;;;;7.77;7.00;;;17.20;1.00;;;;;;5122676;27;20501;-71
2024/03/19 10:09:45;;;;;;;9.30;8.40;;;17.80;1.00;;;;;;5122651;27;20892;-70
2024/03/19 10:12:13;;;;;;;8.10;7.37;;;17.20;1.00;;;;;;5124505;27;20506;-69
2024/03/19 10:14:40;;;;;;;9.10;8.20;;;16.50;1.00;;;;;;5127520;27;20503;-71
2024/03/19 10:17:09;;;;;;;8.20;7.43;;;16.00;1.00;;;;;;5117659;27;20471;-71
2024/03/19 10:19:36;;;;;;;12.93;8.50;;;16.80;1.00;;;;;;5102545;27;20556;-71
2024/03/19 10:22:05;;;;;;;8.47;7.67;;;17.10;1.00;;;;;;5123880;27;20471;-73
2024/03/19 10:24:33;;;;;;;8.80;7.90;;;17.70;1.00;;;;;;5117211;27;20599;-74
2024/03/19 10:27:00;;;;;;;8.60;7.70;;;17.70;1.00;;;;;;5121209;27;20978;-74
2024/03/19 10:29:27;;;;;;;7.87;7.27;;;18.00;1.00;;;;;;5116456;27;21493;-70
2024/03/19 10:31:54;;;;;;;8.80;8.00;;;18.80;1.00;;;;;;5123660;27;20546;-71
2024/03/19 10:34:23;;;;;;;7.80;7.10;;;18.50;1.00;;;;;;5121534;27;20461;-71
2024/03/19 10:36:55;;;;;;;8.33;7.43;;;17.80;1.00;;;;;;5107648;27;20446;-73
2024/03/19 10:39:24;;;;;;;7.97;7.17;;;18.50;1.00;;;;;;5124760;27;20461;-75
2024/03/19 10:41:56;;;;;;;8.40;7.53;;;19.60;1.00;;;;;;5122698;27;20423;-73
2024/03/19 10:44:25;;;;;;;7.60;6.90;;;20.50;1.00;;;;;;5104155;27;20507;-74
2024/03/19 10:46:53;;;;;;;7.63;6.90;;;21.30;1.00;;;;;;5110300;27;20484;-74
2024/03/19 10:49:21;;;;;;;8.30;7.60;;;19.90;1.00;;;;;;5127421;27;20459;-74
2024/03/19 10:51:50;;;;;;;7.70;7.00;;;19.70;1.00;;;;;;5125276;27;21321;-73
2024/03/19 10:54:21;;;;;;;6.93;6.33;;;19.90;1.00;;;;;;5120053;27;20571;-72
2024/03/19 10:56:50;;;;;;;7.93;7.23;;;19.60;1.00;;;;;;5123590;27;20578;-72
2024/03/19 10:59:18;;;;;;;6.97;6.47;;;19.00;1.00;;;;;;5123575;27;20542;-71
2024/03/19 11:01:46;;;;;;;8.20;7.40;;;19.00;1.00;;;;;;5119644;27;20553;-71
2024/03/19 11:04:14;;;;;;;8.80;7.00;;;19.40;1.00;;;;;;5123486;27;20983;-74
2024/03/19 11:06:42;;;;;;;10.70;7.77;;;18.30;1.00;;;;;;5123052;27;20516;-75
2024/03/19 11:09:19;;;;;;;7.20;6.60;;;19.50;1.00;;;;;;5122212;27;20915;-74
2024/03/19 11:11:51;;;;;;;8.97;7.23;;;20.80;1.00;;;;;;5123886;27;20519;-74
2024/03/19 11:14:22;;;;;;;7.80;7.10;;;21.90;1.00;;;;;;5116200;27;21046;-74
2024/03/19 11:16:49;;;;;;;8.23;7.47;;;22.90;1.00;;;;;;5124970;27;20510;-74
2024/03/19 11:19:20;;;;;;;7.07;6.43;;;23.70;1.00;;;;;;5126018;27;20451;-75
2024/03/19 11:21:49;;;;;;;7.77;7.10;;;23.70;1.00;;;;;;5129561;27;20493;-74
2024/03/19 11:24:24;;;;;;;7.20;6.60;;;23.20;1.00;;;;;;5123412;27;20462;-75
2024/03/19 11:26:54;;;;;;;7.33;6.73;;;23.80;1.00;;;;;;5126221;27;20458;-76
2024/03/19 11:29:28;;;;;;;7.20;6.60;;;23.10;1.00;;;;;;5115216;27;20537;-75
2024/03/19 11:31:57;;;;;;;6.97;6.37;;;22.50;1.00;;;;;;5123849;27;20462;-75
2024/03/19 11:34:24;;;;;;;6.17;5.77;;;22.20;1.00;;;;;;5122117;27;20498;-77
2024/03/19 11:36:53;;;;;;;6.10;5.60;;;22.80;1.00;;;;;;5122740;27;20452;-75
2024/03/19 11:39:20;;;;;;;7.07;6.37;;;23.40;1.00;;;;;;5125133;27;20456;-73
2024/03/19 11:41:47;;;;;;;7.23;6.73;;;23.10;1.00;;;;;;5130500;27;20987;-75
2024/03/19 11:44:16;;;;;;;6.73;6.17;;;23.50;1.00;;;;;;5125837;27;20489;-76
2024/03/19 11:46:46;;;;;;;6.80;6.30;;;23.70;1.00;;;;;;5110566;27;21021;-75
2024/03/19 11:49:22;;;;;;;6.40;5.90;;;25.00;1.00;;;;;;5124317;27;20474;-75
2024/03/19 11:51:57;;;;;;;6.73;6.20;;;25.50;1.00;;;;;;5116309;27;20466;-75
2024/03/19 11:54:24;;;;;;;5.77;5.30;;;24.60;1.00;;;;;;5115200;27;20489;-76
2024/03/19 11:56:54;;;;;;;6.70;6.10;;;24.90;1.00;;;;;;5116508;27;20463;-75
2024/03/19 11:59:23;;;;;;;6.63;6.03;;;24.70;1.00;;;;;;5103709;27;20503;-75
2024/03/19 12:01:52;;;;;;;5.87;5.37;;;25.20;1.00;;;;;;5120571;27;20531;-75
2024/03/19 12:04:19;;;;;;;7.67;7.07;;;24.90;1.00;;;;;;5129053;27;20862;-76
2024/03/19 12:06:47;;;;;;;6.80;6.20;;;24.10;1.00;;;;;;5118732;27;20447;-76
2024/03/19 12:09:16;;;;;;;6.73;6.13;;;24.10;1.00;;;;;;5125963;27;20535;-76
2024/03/19 12:11:44;;;;;;;6.30;5.80;;;24.00;1.00;;;;;;5113175;27;20508;-75
2024/03/19 12:14:15;;;;;;;6.70;6.10;;;24.80;1.00;;;;;;5121364;27;21581;-76
2024/03/19 12:16:42;;;;;;;6.03;5.63;;;25.40;1.00;;;;;;5123362;27;20490;-75
2024/03/19 12:19:14;;;;;;;6.13;5.60;;;24.70;1.00;;;;;;5128839;27;20515;-75
2024/03/19 12:21:42;;;;;;;11.93;7.07;;;23.70;1.00;;;;;;5111394;27;20458;-76
2024/03/19 12:24:12;;;;;;;6.83;6.13;;;24.50;1.00;;;;;;5119828;27;20483;-74
2024/03/19 12:26:43;;;;;;;6.27;5.77;;;24.30;1.00;;;;;;5113164;27;20565;-74
2024/03/19 12:29:13;;;;;;;6.60;6.03;;;24.10;1.00;;;;;;5128459;27;21074;-75
2024/03/19 12:31:48;;;;;;;6.57;5.97;;;24.50;1.00;;;;;;5127130;27;20542;-75
2024/03/19 12:34:37;;;;;;;6.10;5.50;;;25.30;1.00;;;;;;5114677;27;20523;-74
2024/03/19 12:37:06;;;;;;;6.30;5.50;;;25.20;1.00;;;;;;5122795;27;20551;-75
2024/03/19 12:39:33;;;;;;;6.40;5.90;;;25.50;1.00;;;;;;5124561;27;20470;-74
2024/03/19 12:42:00;;;;;;;6.60;6.00;;;25.20;1.00;;;;;;5124444;27;20466;-75
2024/03/19 12:44:27;;;;;;;6.43;5.87;;;25.20;1.00;;;;;;5125593;27;20940;-76
2024/03/19 12:46:54;;;;;;;7.20;6.60;;;25.40;1.00;;;;;;5123795;27;20482;-75
2024/03/19 12:49:25;;;;;;;7.73;7.13;;;25.00;1.00;;;;;;5122782;27;20484;-74
2024/03/19 12:51:52;;;;;;;6.93;6.43;;;23.50;1.00;;;;;;5124660;27;20503;-74
2024/03/19 12:54:20;;;;;;;6.77;6.27;;;22.90;1.00;;;;;;5123861;27;20457;-76
2024/03/19 12:56:48;;;;;;;6.70;6.20;;;22.80;1.00;;;;;;5120221;27;20450;-73
2024/03/19 12:59:15;;;;;;;5.97;5.57;;;23.60;1.00;;;;;;5123565;27;20443;-73
2024/03/19 13:01:42;;;;;;;7.60;6.80;;;24.40;1.00;;;;;;5125608;27;20473;-75